createdAt,value
2022-12-23T00:00:45.344Z,8.65
2022-12-23T00:03:12.762Z,4.03
2022-12-23T00:05:40.230Z,3.38
2022-12-23T00:08:08.200Z,3.47
2022-12-23T00:10:38.695Z,5.50
2022-12-23T00:13:24.789Z,6.45
2022-12-23T00:15:51.855Z,5.20
2022-12-23T00:18:18.881Z,6.18
2022-12-23T00:20:45.932Z,9.32
2022-12-23T00:23:13.042Z,8.57
2022-12-23T00:25:43.836Z,7.10
2022-12-23T00:28:16.297Z,9.30
2022-12-23T00:30:53.229Z,7.45
2022-12-23T00:33:25.021Z,7.93
2022-12-23T00:35:52.376Z,7.50
2022-12-23T00:38:40.682Z,8.43
2022-12-23T00:41:35.047Z,9.38
2022-12-23T00:44:03.263Z,4.95
2022-12-23T00:46:30.503Z,6.60
2022-12-23T00:49:16.570Z,5.80
2022-12-23T00:51:43.620Z,6.15
2022-12-23T00:54:10.707Z,5.38
2022-12-23T00:56:37.942Z,8.70
2022-12-23T00:59:05.092Z,5.97
2022-12-23T01:01:50.767Z,6.87
2022-12-23T01:04:37.503Z,7.50
2022-12-23T01:07:05.045Z,5.20
2022-12-23T01:09:32.638Z,8.85
2022-12-23T01:11:59.846Z,3.45
2022-12-23T01:14:27.071Z,4.83
2022-12-23T01:16:54.237Z,5.50
2022-12-23T01:19:21.385Z,5.45
2022-12-23T01:21:48.694Z,5.78
2022-12-23T01:24:15.828Z,6.70
2022-12-23T01:26:42.913Z,5.60
2022-12-23T01:29:10.049Z,5.90
2022-12-23T01:31:37.234Z,5.90
2022-12-23T01:34:04.344Z,4.47
2022-12-23T01:36:31.423Z,4.00
2022-12-23T01:38:58.483Z,2.87
2022-12-23T01:41:46.211Z,3.13
2022-12-23T01:44:50.770Z,5.65
2022-12-23T01:47:24.009Z,5.45
2022-12-23T01:49:55.568Z,4.55
2022-12-23T01:52:22.781Z,4.63
2022-12-23T01:54:49.885Z,2.85
2022-12-23T01:57:16.923Z,4.45
2022-12-23T02:00:03.237Z,7.43
2022-12-23T02:02:49.322Z,3.05
2022-12-23T02:05:17.098Z,3.60
2022-12-23T02:08:02.988Z,5.78
2022-12-23T02:10:40.205Z,3.03
2022-12-23T02:13:16.477Z,2.75
2022-12-23T02:16:06.599Z,3.88
2022-12-23T02:18:59.022Z,3.57
2022-12-23T02:21:33.684Z,4.93
2022-12-23T02:25:17.930Z,2.55
2022-12-23T02:28:08.998Z,3.42
2022-12-23T02:31:10.653Z,3.45
2022-12-23T02:33:51.517Z,3.03
2022-12-23T02:36:28.473Z,4.38
2022-12-23T02:39:03.899Z,2.78
2022-12-23T02:41:40.524Z,2.63
2022-12-23T02:44:21.157Z,2.63
2022-12-23T02:46:57.152Z,3.67
2022-12-23T02:49:30.737Z,2.10
2022-12-23T02:51:59.160Z,5.20
2022-12-23T02:54:31.658Z,2.67
2022-12-23T02:57:01.579Z,1.70
2022-12-23T02:59:34.269Z,1.50
2022-12-23T03:02:01.761Z,1.10
2022-12-23T03:04:29.037Z,1.77
2022-12-23T03:06:56.944Z,2.20
2022-12-23T03:09:45.081Z,2.75
2022-12-23T03:12:21.439Z,4.03
2022-12-23T03:15:11.966Z,7.45
2022-12-23T03:17:57.277Z,1.58
2022-12-23T03:20:28.543Z,1.65
2022-12-23T03:23:01.699Z,1.95
2022-12-23T03:25:53.831Z,1.80
2022-12-23T03:28:44.763Z,3.00
2022-12-23T03:31:16.592Z,1.92
2022-12-23T03:33:47.771Z,0.98
2022-12-23T03:36:24.614Z,1.88
2022-12-23T03:38:53.910Z,1.27
2022-12-23T03:41:31.304Z,3.05
2022-12-23T03:44:02.113Z,2.28
2022-12-23T03:46:52.290Z,1.10
2022-12-23T03:49:26.352Z,2.65
2022-12-23T03:52:02.375Z,1.80
2022-12-23T03:54:55.479Z,2.22
2022-12-23T03:57:22.953Z,1.95
2022-12-23T03:59:53.372Z,3.33
2022-12-23T04:02:25.128Z,1.35
2022-12-23T04:05:22.402Z,1.47
2022-12-23T04:08:03.287Z,4.07
2022-12-23T04:10:30.768Z,3.80
2022-12-23T04:12:58.115Z,1.38
2022-12-23T04:15:26.438Z,1.38
2022-12-23T04:17:55.041Z,3.17
2022-12-23T04:20:22.387Z,1.98
2022-12-23T04:22:49.529Z,1.48
2022-12-23T04:25:17.769Z,2.25
2022-12-23T04:27:44.849Z,4.00
2022-12-23T04:30:13.630Z,3.87
2022-12-23T04:32:41.642Z,1.60
2022-12-23T04:35:09.819Z,1.67
2022-12-23T04:37:36.917Z,1.33
2022-12-23T04:40:04.920Z,2.17
2022-12-23T04:42:31.967Z,1.43
2022-12-23T04:44:59.151Z,1.08
2022-12-23T04:47:26.631Z,4.00
2022-12-23T04:49:53.707Z,1.30
2022-12-23T04:52:20.927Z,1.33
2022-12-23T04:54:48.201Z,1.00
2022-12-23T04:57:15.758Z,0.95
2022-12-23T04:59:42.809Z,1.92
2022-12-23T05:02:10.460Z,4.13
2022-12-23T05:04:37.701Z,2.83
2022-12-23T05:07:05.057Z,2.07
2022-12-23T05:09:32.155Z,1.45
2022-12-23T05:11:59.239Z,2.97
2022-12-23T05:14:26.306Z,1.42
2022-12-23T05:16:53.377Z,1.83
2022-12-23T05:19:20.518Z,1.03
2022-12-23T05:21:47.580Z,1.42
2022-12-23T05:24:15.020Z,2.22
2022-12-23T05:26:47.627Z,2.47
2022-12-23T05:29:15.865Z,1.40
2022-12-23T05:31:43.081Z,1.63
2022-12-23T05:34:10.320Z,3.05
2022-12-23T05:36:37.417Z,2.55
2022-12-23T05:39:04.477Z,2.17
2022-12-23T05:41:31.717Z,1.30
2022-12-23T05:43:58.828Z,0.97
2022-12-23T05:46:26.966Z,1.38
2022-12-23T05:48:54.407Z,1.80
2022-12-23T05:51:21.527Z,1.27
2022-12-23T05:53:48.600Z,1.33
2022-12-23T05:56:15.728Z,1.53
2022-12-23T05:58:42.775Z,2.22
2022-12-23T06:01:09.825Z,2.13
2022-12-23T06:03:36.944Z,1.95
2022-12-23T06:06:04.219Z,1.60
2022-12-23T06:08:31.257Z,1.20
2022-12-23T06:10:59.913Z,1.40
2022-12-23T06:13:27.099Z,2.72
2022-12-23T06:15:54.202Z,0.60
2022-12-23T06:18:21.338Z,1.10
2022-12-23T06:20:48.405Z,1.23
2022-12-23T06:23:15.836Z,0.95
2022-12-23T06:25:43.062Z,1.85
2022-12-23T06:28:10.174Z,1.48
2022-12-23T06:30:37.206Z,2.15
2022-12-23T06:33:04.301Z,1.43
2022-12-23T06:35:31.376Z,1.67
2022-12-23T06:37:58.477Z,1.92
2022-12-23T06:40:25.564Z,2.42
2022-12-23T06:42:52.603Z,2.30
2022-12-23T06:45:19.722Z,1.77
2022-12-23T06:47:46.783Z,1.80
2022-12-23T06:50:13.830Z,1.45
2022-12-23T06:52:41.027Z,1.20
2022-12-23T06:55:08.146Z,1.33
2022-12-23T06:57:35.275Z,1.47
2022-12-23T07:00:06.586Z,1.80
2022-12-23T07:02:33.863Z,1.63
2022-12-23T07:05:01.005Z,1.00
2022-12-23T07:07:28.084Z,1.80
2022-12-23T07:09:55.153Z,1.47
2022-12-23T07:12:22.262Z,1.67
2022-12-23T07:14:49.346Z,1.42
2022-12-23T07:17:16.497Z,2.20
2022-12-23T07:19:43.668Z,1.70
2022-12-23T07:22:10.772Z,1.27
2022-12-23T07:24:37.965Z,1.52
2022-12-23T07:27:05.309Z,1.80
2022-12-23T07:29:32.346Z,1.77
2022-12-23T07:32:01.360Z,0.85
2022-12-23T07:34:28.527Z,1.47
2022-12-23T07:36:55.858Z,2.78
2022-12-23T07:39:22.922Z,1.40
2022-12-23T07:41:59.030Z,2.17
2022-12-23T07:44:36.308Z,3.67
2022-12-23T07:47:03.413Z,1.57
2022-12-23T07:49:30.504Z,1.70
2022-12-23T07:51:57.758Z,1.75
2022-12-23T07:54:24.928Z,1.23
2022-12-23T07:56:52.015Z,1.33
2022-12-23T07:59:19.163Z,1.17
2022-12-23T08:01:46.398Z,2.05
2022-12-23T08:04:13.548Z,2.50
2022-12-23T08:06:41.433Z,2.83
2022-12-23T08:09:09.587Z,1.65
2022-12-23T08:11:36.668Z,2.20
2022-12-23T08:14:03.706Z,1.35
2022-12-23T08:16:31.049Z,1.95
2022-12-23T08:18:58.160Z,1.40
2022-12-23T08:21:25.229Z,2.13
2022-12-23T08:23:52.355Z,1.90
2022-12-23T08:26:24.288Z,2.50
2022-12-23T08:28:53.565Z,1.77
2022-12-23T08:31:24.360Z,2.53
2022-12-23T08:33:54.227Z,2.33
2022-12-23T08:36:24.095Z,2.03
2022-12-23T08:38:53.059Z,1.25
2022-12-23T08:41:23.120Z,1.60
2022-12-23T08:43:50.468Z,1.58
2022-12-23T08:46:17.674Z,1.83
2022-12-23T08:48:49.139Z,1.67
2022-12-23T08:51:19.026Z,1.73
2022-12-23T08:53:46.894Z,1.45
2022-12-23T08:56:19.122Z,2.38
2022-12-23T08:58:48.305Z,1.65
2022-12-23T09:01:16.779Z,1.77
2022-12-23T09:03:44.643Z,1.10
2022-12-23T09:06:16.639Z,1.02
2022-12-23T09:08:43.870Z,1.40
2022-12-23T09:11:12.413Z,3.75
2022-12-23T09:13:39.716Z,1.73
2022-12-23T09:16:07.884Z,2.10
2022-12-23T09:18:35.330Z,1.10
2022-12-23T09:21:05.039Z,2.05
2022-12-23T09:23:32.648Z,1.40
2022-12-23T09:25:59.950Z,2.10
2022-12-23T09:28:27.050Z,2.03
2022-12-23T09:30:54.164Z,2.22
2022-12-23T09:33:21.230Z,1.40
2022-12-23T09:35:48.309Z,2.08
2022-12-23T09:38:15.642Z,1.40
2022-12-23T09:40:42.776Z,2.30
2022-12-23T09:43:27.851Z,2.47
2022-12-23T09:46:00.957Z,1.92
2022-12-23T09:48:33.991Z,2.55
2022-12-23T09:51:01.931Z,1.80
2022-12-23T09:53:43.582Z,1.25
2022-12-23T09:56:20.302Z,2.13
2022-12-23T09:59:10.726Z,2.00
2022-12-23T10:01:49.102Z,2.40
2022-12-23T10:04:22.048Z,1.60
2022-12-23T10:07:29.008Z,3.08
2022-12-23T10:09:57.900Z,2.08
2022-12-23T10:12:44.363Z,2.05
2022-12-23T10:15:37.379Z,2.63
2022-12-23T10:18:16.223Z,2.03
2022-12-23T10:20:48.236Z,1.95
2022-12-23T10:23:26.701Z,2.03
2022-12-23T10:25:53.782Z,2.45
2022-12-23T10:28:20.980Z,1.75
2022-12-23T10:31:30.567Z,1.20
2022-12-23T10:34:00.668Z,2.72
2022-12-23T10:36:35.625Z,1.50
2022-12-23T10:39:49.767Z,1.77
2022-12-23T10:42:19.464Z,1.60
2022-12-23T10:44:53.968Z,1.73
2022-12-23T10:47:45.228Z,1.52
2022-12-23T10:50:31.703Z,1.98
2022-12-23T10:53:01.478Z,1.98
2022-12-23T10:55:34.071Z,2.50
2022-12-23T10:58:12.253Z,1.70
2022-12-23T11:00:41.094Z,1.38
2022-12-23T11:03:28.067Z,2.00
2022-12-23T11:05:56.378Z,2.45
2022-12-23T11:08:24.523Z,1.20
2022-12-23T11:10:52.006Z,1.50
2022-12-23T11:13:46.012Z,1.45
2022-12-23T11:16:22.611Z,1.25
2022-12-23T11:18:56.406Z,1.77
2022-12-23T11:21:23.813Z,1.23
2022-12-23T11:24:15.440Z,1.10
2022-12-23T11:26:44.371Z,1.65
2022-12-23T11:29:18.113Z,2.00
2022-12-23T11:31:45.701Z,1.20
2022-12-23T11:34:21.076Z,1.67
2022-12-23T11:36:56.565Z,1.30
2022-12-23T11:39:29.607Z,2.83
2022-12-23T11:42:05.110Z,1.42
2022-12-23T11:44:36.058Z,1.55
2022-12-23T11:47:23.823Z,1.45
2022-12-23T11:49:55.037Z,3.20
2022-12-23T11:52:27.604Z,1.30
2022-12-23T11:55:02.387Z,1.60
2022-12-23T11:57:39.677Z,1.60
2022-12-23T12:00:18.122Z,3.42
2022-12-23T12:02:46.476Z,2.00
2022-12-23T12:05:18.306Z,1.55
2022-12-23T12:07:46.184Z,1.58
2022-12-23T12:10:21.091Z,1.70
2022-12-23T12:12:54.841Z,1.23
2022-12-23T12:15:31.688Z,1.57
2022-12-23T12:17:59.454Z,1.23
2022-12-23T12:20:37.536Z,2.47
2022-12-23T12:23:15.052Z,1.58
2022-12-23T12:25:58.592Z,1.33
2022-12-23T12:28:30.540Z,1.57
2022-12-23T12:31:02.239Z,1.85
2022-12-23T12:33:38.401Z,1.73
2022-12-23T12:36:22.555Z,1.20
2022-12-23T12:38:50.669Z,1.15
2022-12-23T12:41:40.227Z,1.87
2022-12-23T12:44:26.999Z,1.60
2022-12-23T12:46:58.784Z,2.65
2022-12-23T12:49:32.479Z,1.77
2022-12-23T12:52:09.978Z,2.40
2022-12-23T12:54:44.754Z,2.27
2022-12-23T12:57:15.415Z,2.20
2022-12-23T12:59:43.184Z,2.00
2022-12-23T13:02:34.291Z,2.50
2022-12-23T13:05:29.315Z,1.38
2022-12-23T13:08:14.600Z,2.70
2022-12-23T13:11:06.102Z,1.77
2022-12-23T13:14:03.321Z,1.83
2022-12-23T13:16:46.347Z,2.92
2022-12-23T13:19:48.076Z,2.03
2022-12-23T13:22:24.112Z,2.43
2022-12-23T13:25:00.297Z,2.08
2022-12-23T13:27:51.757Z,1.40
2022-12-23T13:30:21.524Z,1.85
2022-12-23T13:33:07.190Z,2.72
2022-12-23T13:35:49.480Z,2.97
2022-12-23T13:38:45.273Z,2.63
2022-12-23T13:41:15.721Z,2.83
2022-12-23T13:44:05.316Z,1.50
2022-12-23T13:46:49.912Z,1.63
2022-12-23T13:49:29.650Z,4.20
2022-12-23T13:52:05.823Z,5.57
2022-12-23T13:54:51.374Z,2.15
2022-12-23T13:57:36.790Z,1.77
2022-12-23T14:00:19.048Z,2.60
2022-12-23T14:02:53.073Z,2.57
2022-12-23T14:05:33.349Z,1.70
2022-12-23T14:08:03.074Z,3.03
2022-12-23T14:10:30.854Z,2.83
2022-12-23T14:13:01.496Z,2.80
2022-12-23T14:15:31.768Z,1.60
2022-12-23T14:18:30.759Z,3.10
2022-12-23T14:21:27.555Z,2.38
2022-12-23T14:24:25.856Z,2.75
2022-12-23T14:27:26.494Z,3.55
2022-12-23T14:30:32.364Z,3.93
2022-12-23T14:33:01.082Z,3.88
2022-12-23T14:35:33.369Z,5.43
2022-12-23T14:38:29.786Z,2.33
2022-12-23T14:41:19.208Z,3.17
2022-12-23T14:43:46.165Z,2.53
2022-12-23T14:46:34.966Z,3.10
2022-12-23T14:49:36.484Z,2.47
2022-12-23T14:51:50.893Z,2.80
2022-12-23T14:54:37.496Z,3.55
2022-12-23T14:57:08.215Z,2.80
2022-12-23T14:59:46.742Z,4.75
2022-12-23T15:02:22.145Z,4.88
2022-12-23T15:04:57.223Z,3.28
2022-12-23T15:07:35.743Z,3.28
2022-12-23T15:10:06.184Z,3.80
2022-12-23T15:12:38.960Z,3.85
2022-12-23T15:15:13.603Z,2.63
2022-12-23T15:17:40.864Z,3.40
2022-12-23T15:20:15.648Z,3.13
2022-12-23T15:22:44.723Z,2.97
2022-12-23T15:25:26.653Z,3.75
2022-12-23T15:28:01.248Z,2.67
2022-12-23T15:30:34.114Z,3.03
2022-12-23T15:33:27.883Z,3.03
2022-12-23T15:35:53.970Z,3.53
2022-12-23T15:38:22.424Z,3.38
2022-12-23T15:41:01.200Z,2.55
2022-12-23T15:43:28.439Z,3.60
2022-12-23T15:46:04.821Z,3.85
2022-12-23T15:48:32.703Z,3.43
2022-12-23T15:51:11.537Z,3.40
2022-12-23T15:53:40.918Z,4.25
2022-12-23T15:56:18.755Z,2.90
2022-12-23T15:58:45.917Z,4.78
2022-12-23T16:01:17.663Z,3.83
2022-12-23T16:03:50.674Z,3.75
2022-12-23T16:06:28.257Z,3.63
2022-12-23T16:08:57.478Z,3.08
2022-12-23T16:11:38.284Z,4.13
2022-12-23T16:14:25.949Z,4.07
2022-12-23T16:16:53.956Z,3.58
2022-12-23T16:19:38.338Z,6.43
2022-12-23T16:22:21.030Z,4.85
2022-12-23T16:25:11.474Z,4.85
2022-12-23T16:27:40.916Z,4.53
2022-12-23T16:30:13.226Z,5.97
2022-12-23T16:32:49.558Z,5.45
2022-12-23T16:35:36.115Z,4.65
2022-12-23T16:38:23.805Z,6.13
2022-12-23T16:40:53.632Z,7.47
2022-12-23T16:43:22.595Z,4.80
2022-12-23T16:45:52.590Z,10.90
2022-12-23T16:48:41.453Z,4.85
2022-12-23T16:51:12.557Z,5.60
2022-12-23T16:53:39.649Z,4.93
2022-12-23T16:56:11.901Z,7.40
2022-12-23T16:58:39.030Z,6.10
2022-12-23T17:01:06.289Z,8.38
2022-12-23T17:03:33.432Z,7.45
2022-12-23T17:06:00.702Z,9.20
2022-12-23T17:08:27.731Z,11.30
2022-12-23T17:10:56.080Z,5.57
2022-12-23T17:13:23.370Z,6.53
2022-12-23T17:15:50.527Z,4.88
2022-12-23T17:18:18.381Z,7.27
2022-12-23T17:20:46.557Z,7.20
2022-12-23T17:23:31.236Z,7.40
2022-12-23T17:25:58.804Z,6.57
2022-12-23T17:28:31.911Z,9.30
2022-12-23T17:30:59.396Z,5.43
2022-12-23T17:33:29.660Z,6.35
2022-12-23T17:35:56.922Z,6.00
2022-12-23T17:38:24.221Z,6.13
2022-12-23T17:40:51.348Z,7.45
2022-12-23T17:43:18.685Z,10.00
2022-12-23T17:45:45.814Z,6.75
2022-12-23T17:48:19.730Z,7.88
2022-12-23T17:50:48.020Z,8.48
2022-12-23T17:53:19.865Z,7.53
2022-12-23T17:55:47.014Z,6.87
2022-12-23T17:58:14.435Z,6.97
2022-12-23T18:00:41.703Z,7.60
2022-12-23T18:03:22.192Z,9.23
2022-12-23T18:05:51.140Z,13.30
2022-12-23T18:08:21.403Z,12.63
2022-12-23T18:10:48.547Z,36.33
2022-12-23T18:13:17.582Z,25.75
2022-12-23T18:15:45.162Z,24.95
2022-12-23T18:18:17.864Z,19.65
2022-12-23T18:20:49.389Z,20.80
2022-12-23T18:23:23.621Z,18.67
2022-12-23T18:25:50.775Z,16.45
2022-12-23T18:28:17.921Z,14.48
2022-12-23T18:30:45.149Z,11.68
2022-12-23T18:33:15.939Z,14.07
2022-12-23T18:35:50.276Z,11.90
2022-12-23T18:38:18.092Z,9.52
2022-12-23T18:40:45.544Z,11.73
2022-12-23T18:43:24.447Z,8.40
2022-12-23T18:45:53.487Z,7.67
2022-12-23T18:48:21.485Z,8.55
2022-12-23T18:50:48.851Z,5.63
2022-12-23T18:53:25.371Z,8.70
2022-12-23T18:55:53.634Z,8.35
2022-12-23T18:58:21.397Z,6.07
2022-12-23T19:00:49.600Z,7.07
2022-12-23T19:03:19.634Z,9.15
2022-12-23T19:05:46.939Z,7.68
2022-12-23T19:08:14.249Z,6.47
2022-12-23T19:10:41.817Z,6.90
2022-12-23T19:13:09.139Z,6.28
2022-12-23T19:15:36.553Z,9.95
2022-12-23T19:18:03.704Z,7.65
2022-12-23T19:20:31.180Z,5.93
2022-12-23T19:22:58.275Z,7.10
2022-12-23T19:25:25.421Z,6.55
2022-12-23T19:27:52.637Z,5.97
2022-12-23T19:30:19.691Z,6.57
2022-12-23T19:32:48.525Z,6.22
2022-12-23T19:35:15.581Z,7.77
2022-12-23T19:37:42.838Z,6.97
2022-12-23T19:40:10.607Z,6.78
2022-12-23T19:42:38.810Z,7.38
2022-12-23T19:45:07.535Z,6.82
2022-12-23T19:47:34.690Z,7.80
2022-12-23T19:50:01.900Z,8.07
2022-12-23T19:52:28.937Z,7.93
2022-12-23T19:54:56.173Z,8.38
2022-12-23T19:57:23.574Z,8.07
2022-12-23T19:59:50.726Z,10.27
2022-12-23T20:02:19.972Z,8.25
2022-12-23T20:04:47.238Z,8.77
2022-12-23T20:07:14.270Z,8.43
2022-12-23T20:09:41.383Z,10.70
2022-12-23T20:12:08.494Z,10.07
2022-12-23T20:14:35.592Z,9.38
2022-12-23T20:17:02.701Z,7.60
2022-12-23T20:19:29.779Z,8.38
2022-12-23T20:21:58.163Z,6.13
2022-12-23T20:24:25.227Z,5.13
2022-12-23T20:26:52.371Z,4.97
2022-12-23T20:29:19.463Z,4.22
2022-12-23T20:31:46.587Z,4.57
2022-12-23T20:34:15.624Z,4.10
2022-12-23T20:36:43.328Z,4.63
2022-12-23T20:39:10.487Z,5.97
2022-12-23T20:41:39.190Z,4.57
2022-12-23T20:46:53.409Z,3.50
2022-12-23T20:49:20.557Z,2.23
2022-12-23T20:51:47.596Z,1.48
2022-12-23T20:54:14.636Z,1.85
2022-12-23T20:56:41.677Z,1.70
2022-12-23T20:59:08.738Z,2.15
2022-12-23T21:01:40.406Z,3.47
2022-12-23T21:04:14.101Z,1.60
2022-12-23T21:06:41.539Z,1.73
2022-12-23T21:09:11.562Z,2.08
2022-12-23T21:11:43.181Z,1.80
2022-12-23T21:14:11.106Z,2.07
2022-12-23T21:16:38.411Z,1.42
2022-12-23T21:19:06.850Z,1.70
2022-12-23T21:21:34.010Z,1.98
2022-12-23T21:24:04.777Z,1.60
2022-12-23T21:26:33.696Z,1.73
2022-12-23T21:29:02.275Z,1.15
2022-12-23T21:31:31.017Z,2.88
2022-12-23T21:33:58.463Z,1.75
2022-12-23T21:36:28.871Z,1.65
2022-12-23T21:38:56.068Z,1.20
2022-12-23T21:41:27.509Z,1.60
2022-12-23T21:43:56.656Z,1.90
2022-12-23T21:46:24.151Z,1.90
2022-12-23T21:48:51.429Z,1.38
2022-12-23T21:51:38.582Z,1.60
2022-12-23T21:54:07.984Z,1.35
2022-12-23T21:56:35.700Z,1.23
2022-12-23T21:59:08.643Z,1.67
2022-12-23T22:01:35.804Z,1.55
2022-12-23T22:04:03.151Z,1.43
2022-12-23T22:06:38.230Z,1.85
2022-12-23T22:09:06.739Z,2.65
2022-12-23T22:11:35.653Z,1.92
2022-12-23T22:14:04.418Z,2.00
2022-12-23T22:16:32.162Z,1.87
2022-12-23T22:19:00.451Z,1.70
2022-12-23T22:21:29.836Z,1.83
2022-12-23T22:23:57.569Z,2.67
2022-12-23T22:26:27.205Z,2.15
2022-12-23T22:28:55.316Z,2.07
2022-12-23T22:31:36.196Z,1.70
2022-12-23T22:34:04.493Z,2.15
2022-12-23T22:36:32.258Z,1.90
2022-12-23T22:39:02.563Z,4.30
2022-12-23T22:41:30.825Z,1.80
2022-12-23T22:43:58.713Z,2.47
2022-12-23T22:46:26.539Z,1.75
2022-12-23T22:48:54.285Z,1.48
2022-12-23T22:51:24.365Z,2.03
2022-12-23T22:53:52.013Z,2.00
2022-12-23T22:56:20.751Z,1.88
2022-12-23T22:58:48.651Z,2.60
2022-12-23T23:01:29.883Z,2.83
2022-12-23T23:03:58.641Z,2.47
2022-12-23T23:06:31.979Z,3.07
2022-12-23T23:08:59.690Z,2.75
2022-12-23T23:11:27.716Z,2.95
2022-12-23T23:13:55.762Z,2.70
2022-12-23T23:16:24.100Z,2.42
2022-12-23T23:18:52.500Z,1.87
2022-12-23T23:21:19.883Z,3.95
2022-12-23T23:23:47.053Z,2.47
2022-12-23T23:26:14.525Z,3.65
2022-12-23T23:28:42.312Z,2.08
2022-12-23T23:31:41.235Z,3.07
2022-12-23T23:33:57.913Z,2.10
2022-12-23T23:36:25.725Z,4.03
2022-12-23T23:38:53.030Z,2.72
2022-12-23T23:41:23.296Z,3.20
2022-12-23T23:43:51.985Z,3.17
2022-12-23T23:46:19.600Z,3.70
2022-12-23T23:48:46.895Z,5.75
2022-12-23T23:51:14.108Z,6.60
2022-12-23T23:53:41.284Z,3.80
2022-12-23T23:56:09.019Z,5.50
2022-12-23T23:58:36.830Z,3.92
